sensor_id;sensor_type;location;lat;lon;timestamp;P1;durP1;ratioP1;P2;durP2;ratioP2
11962;SDS011;62678;52.130;5.584;2022-08-14T00:00:41;10.50;;;7.10;;
11962;SDS011;62678;52.130;5.584;2022-08-14T00:03:16;9.32;;;7.20;;
11962;SDS011;62678;52.130;5.584;2022-08-14T00:05:44;8.00;;;7.20;;
11962;SDS011;62678;52.130;5.584;2022-08-14T00:08:10;8.05;;;7.28;;
11962;SDS011;62678;52.130;5.584;2022-08-14T00:10:37;7.65;;;6.85;;
11962;SDS011;62678;52.130;5.584;2022-08-14T00:13:04;8.15;;;7.22;;
11962;SDS011;62678;52.130;5.584;2022-08-14T00:15:34;11.60;;;7.72;;
11962;SDS011;62678;52.130;5.584;2022-08-14T00:18:04;8.77;;;6.95;;
11962;SDS011;62678;52.130;5.584;2022-08-14T00:20:32;10.63;;;7.75;;
11962;SDS011;62678;52.130;5.584;2022-08-14T00:23:03;8.60;;;7.65;;
11962;SDS011;62678;52.130;5.584;2022-08-14T00:25:31;9.10;;;8.18;;
11962;SDS011;62678;52.130;5.584;2022-08-14T00:27:58;8.15;;;7.32;;
11962;SDS011;62678;52.130;5.584;2022-08-14T00:30:25;10.73;;;8.55;;
11962;SDS011;62678;52.130;5.584;2022-08-14T00:32:53;10.05;;;7.57;;
11962;SDS011;62678;52.130;5.584;2022-08-14T00:35:20;8.73;;;7.78;;
11962;SDS011;62678;52.130;5.584;2022-08-14T00:37:47;8.65;;;7.75;;
11962;SDS011;62678;52.130;5.584;2022-08-14T00:40:15;11.88;;;8.25;;
11962;SDS011;62678;52.130;5.584;2022-08-14T00:42:43;9.43;;;7.78;;
11962;SDS011;62678;52.130;5.584;2022-08-14T00:45:11;10.18;;;8.18;;
11962;SDS011;62678;52.130;5.584;2022-08-14T00:47:40;8.98;;;7.50;;
11962;SDS011;62678;52.130;5.584;2022-08-14T00:50:11;9.23;;;7.70;;
11962;SDS011;62678;52.130;5.584;2022-08-14T00:52:39;8.35;;;7.55;;
11962;SDS011;62678;52.130;5.584;2022-08-14T00:55:06;11.70;;;7.60;;
11962;SDS011;62678;52.130;5.584;2022-08-14T00:57:35;8.38;;;7.50;;
11962;SDS011;62678;52.130;5.584;2022-08-14T01:00:04;10.45;;;8.10;;
11962;SDS011;62678;52.130;5.584;2022-08-14T01:02:35;8.13;;;7.43;;
11962;SDS011;62678;52.130;5.584;2022-08-14T01:05:03;9.63;;;7.38;;
11962;SDS011;62678;52.130;5.584;2022-08-14T01:07:33;9.55;;;7.60;;
11962;SDS011;62678;52.130;5.584;2022-08-14T01:10:01;8.82;;;8.02;;
11962;SDS011;62678;52.130;5.584;2022-08-14T01:12:29;10.57;;;8.85;;
11962;SDS011;62678;52.130;5.584;2022-08-14T01:14:56;10.70;;;7.80;;
11962;SDS011;62678;52.130;5.584;2022-08-14T01:17:24;9.75;;;8.57;;
11962;SDS011;62678;52.130;5.584;2022-08-14T01:20:13;11.38;;;8.75;;
11962;SDS011;62678;52.130;5.584;2022-08-14T01:22:59;10.00;;;7.95;;
11962;SDS011;62678;52.130;5.584;2022-08-14T01:25:26;11.15;;;8.55;;
11962;SDS011;62678;52.130;5.584;2022-08-14T01:27:53;9.75;;;8.35;;
11962;SDS011;62678;52.130;5.584;2022-08-14T01:30:20;9.30;;;8.30;;
11962;SDS011;62678;52.130;5.584;2022-08-14T01:32:48;10.77;;;8.23;;
11962;SDS011;62678;52.130;5.584;2022-08-14T01:35:15;9.45;;;8.32;;
11962;SDS011;62678;52.130;5.584;2022-08-14T01:37:42;9.45;;;8.50;;
11962;SDS011;62678;52.130;5.584;2022-08-14T01:40:11;8.70;;;7.88;;
11962;SDS011;62678;52.130;5.584;2022-08-14T01:42:40;10.05;;;9.05;;
11962;SDS011;62678;52.130;5.584;2022-08-14T01:45:07;9.45;;;8.15;;
11962;SDS011;62678;52.130;5.584;2022-08-14T01:47:37;10.45;;;8.60;;
11962;SDS011;62678;52.130;5.584;2022-08-14T01:50:04;10.82;;;8.27;;
11962;SDS011;62678;52.130;5.584;2022-08-14T01:52:32;9.75;;;8.75;;
11962;SDS011;62678;52.130;5.584;2022-08-14T01:55:00;9.68;;;8.68;;
11962;SDS011;62678;52.130;5.584;2022-08-14T01:57:28;10.98;;;8.80;;
11962;SDS011;62678;52.130;5.584;2022-08-14T01:59:55;11.38;;;8.32;;
11962;SDS011;62678;52.130;5.584;2022-08-14T02:02:22;9.60;;;8.60;;
11962;SDS011;62678;52.130;5.584;2022-08-14T02:04:49;11.95;;;9.23;;
11962;SDS011;62678;52.130;5.584;2022-08-14T02:07:16;11.43;;;9.38;;
11962;SDS011;62678;52.130;5.584;2022-08-14T02:09:44;10.43;;;9.02;;
11962;SDS011;62678;52.130;5.584;2022-08-14T02:12:11;9.57;;;8.57;;
11962;SDS011;62678;52.130;5.584;2022-08-14T02:14:39;10.13;;;8.98;;
11962;SDS011;62678;52.130;5.584;2022-08-14T02:17:06;10.40;;;9.20;;
11962;SDS011;62678;52.130;5.584;2022-08-14T02:19:33;10.75;;;9.23;;
11962;SDS011;62678;52.130;5.584;2022-08-14T02:22:00;10.68;;;9.57;;
11962;SDS011;62678;52.130;5.584;2022-08-14T02:24:28;11.57;;;10.00;;
11962;SDS011;62678;52.130;5.584;2022-08-14T02:26:56;10.45;;;9.45;;
11962;SDS011;62678;52.130;5.584;2022-08-14T02:29:25;13.35;;;9.02;;
11962;SDS011;62678;52.130;5.584;2022-08-14T02:31:55;13.20;;;9.05;;
11962;SDS011;62678;52.130;5.584;2022-08-14T02:34:24;11.73;;;9.13;;
11962;SDS011;62678;52.130;5.584;2022-08-14T02:36:54;12.20;;;9.15;;
11962;SDS011;62678;52.130;5.584;2022-08-14T02:39:23;11.75;;;9.30;;
11962;SDS011;62678;52.130;5.584;2022-08-14T02:41:51;10.35;;;9.30;;
11962;SDS011;62678;52.130;5.584;2022-08-14T02:44:18;10.50;;;9.35;;
11962;SDS011;62678;52.130;5.584;2022-08-14T02:46:47;10.88;;;9.75;;
11962;SDS011;62678;52.130;5.584;2022-08-14T02:49:16;10.60;;;9.20;;
11962;SDS011;62678;52.130;5.584;2022-08-14T02:51:46;12.13;;;9.23;;
11962;SDS011;62678;52.130;5.584;2022-08-14T02:54:13;11.57;;;9.38;;
11962;SDS011;62678;52.130;5.584;2022-08-14T02:56:41;10.93;;;9.50;;
11962;SDS011;62678;52.130;5.584;2022-08-14T02:59:07;10.95;;;9.57;;
11962;SDS011;62678;52.130;5.584;2022-08-14T03:01:38;10.73;;;9.68;;
11962;SDS011;62678;52.130;5.584;2022-08-14T03:04:05;14.02;;;9.77;;
11962;SDS011;62678;52.130;5.584;2022-08-14T03:06:36;11.57;;;9.80;;
11962;SDS011;62678;52.130;5.584;2022-08-14T03:09:07;11.10;;;10.00;;
11962;SDS011;62678;52.130;5.584;2022-08-14T03:11:35;10.82;;;9.68;;
11962;SDS011;62678;52.130;5.584;2022-08-14T03:14:02;11.00;;;9.90;;
11962;SDS011;62678;52.130;5.584;2022-08-14T03:16:28;10.75;;;9.65;;
11962;SDS011;62678;52.130;5.584;2022-08-14T03:18:59;13.95;;;10.80;;
11962;SDS011;62678;52.130;5.584;2022-08-14T03:21:27;16.17;;;10.05;;
11962;SDS011;62678;52.130;5.584;2022-08-14T03:23:56;11.23;;;10.13;;
11962;SDS011;62678;52.130;5.584;2022-08-14T03:26:32;16.08;;;12.15;;
11962;SDS011;62678;52.130;5.584;2022-08-14T03:28:59;12.30;;;11.00;;
11962;SDS011;62678;52.130;5.584;2022-08-14T03:31:26;12.25;;;10.13;;
11962;SDS011;62678;52.130;5.584;2022-08-14T03:33:54;12.82;;;11.52;;
11962;SDS011;62678;52.130;5.584;2022-08-14T03:36:21;12.25;;;10.95;;
11962;SDS011;62678;52.130;5.584;2022-08-14T03:38:49;12.48;;;11.27;;
11962;SDS011;62678;52.130;5.584;2022-08-14T03:41:20;12.60;;;10.80;;
11962;SDS011;62678;52.130;5.584;2022-08-14T03:43:48;12.40;;;11.18;;
11962;SDS011;62678;52.130;5.584;2022-08-14T03:46:18;13.32;;;11.93;;
11962;SDS011;62678;52.130;5.584;2022-08-14T03:48:46;15.48;;;12.27;;
11962;SDS011;62678;52.130;5.584;2022-08-14T03:51:13;13.70;;;11.85;;
11962;SDS011;62678;52.130;5.584;2022-08-14T03:53:41;14.40;;;12.10;;
11962;SDS011;62678;52.130;5.584;2022-08-14T03:56:09;14.57;;;12.45;;
11962;SDS011;62678;52.130;5.584;2022-08-14T03:58:40;14.27;;;12.48;;
11962;SDS011;62678;52.130;5.584;2022-08-14T04:01:09;16.75;;;13.10;;
11962;SDS011;62678;52.130;5.584;2022-08-14T04:03:36;15.80;;;13.10;;
11962;SDS011;62678;52.130;5.584;2022-08-14T04:06:04;13.15;;;11.75;;
11962;SDS011;62678;52.130;5.584;2022-08-14T04:08:33;13.68;;;12.05;;
11962;SDS011;62678;52.130;5.584;2022-08-14T04:11:00;15.60;;;12.75;;
11962;SDS011;62678;52.130;5.584;2022-08-14T04:13:27;15.52;;;12.68;;
11962;SDS011;62678;52.130;5.584;2022-08-14T04:15:55;13.60;;;12.20;;
11962;SDS011;62678;52.130;5.584;2022-08-14T04:18:22;15.27;;;12.93;;
11962;SDS011;62678;52.130;5.584;2022-08-14T04:20:49;16.00;;;12.98;;
11962;SDS011;62678;52.130;5.584;2022-08-14T04:23:15;17.50;;;13.27;;
11962;SDS011;62678;52.130;5.584;2022-08-14T04:25:42;16.05;;;13.30;;
11962;SDS011;62678;52.130;5.584;2022-08-14T04:28:10;15.52;;;13.52;;
11962;SDS011;62678;52.130;5.584;2022-08-14T04:30:39;15.48;;;12.85;;
11962;SDS011;62678;52.130;5.584;2022-08-14T04:33:07;14.95;;;12.52;;
11962;SDS011;62678;52.130;5.584;2022-08-14T04:35:34;20.00;;;13.50;;
11962;SDS011;62678;52.130;5.584;2022-08-14T04:38:04;15.30;;;12.68;;
11962;SDS011;62678;52.130;5.584;2022-08-14T04:40:49;17.25;;;13.75;;
11962;SDS011;62678;52.130;5.584;2022-08-14T04:43:33;14.40;;;12.90;;
11962;SDS011;62678;52.130;5.584;2022-08-14T04:46:04;13.93;;;12.45;;
11962;SDS011;62678;52.130;5.584;2022-08-14T04:48:34;14.57;;;13.00;;
11962;SDS011;62678;52.130;5.584;2022-08-14T04:51:01;15.50;;;13.38;;
11962;SDS011;62678;52.130;5.584;2022-08-14T04:53:32;17.38;;;13.20;;
11962;SDS011;62678;52.130;5.584;2022-08-14T04:56:00;14.90;;;12.88;;
11962;SDS011;62678;52.130;5.584;2022-08-14T04:58:27;16.42;;;13.35;;
11962;SDS011;62678;52.130;5.584;2022-08-14T05:00:56;17.63;;;13.98;;
11962;SDS011;62678;52.130;5.584;2022-08-14T05:03:24;16.73;;;14.02;;
11962;SDS011;62678;52.130;5.584;2022-08-14T05:05:55;16.83;;;13.88;;
11962;SDS011;62678;52.130;5.584;2022-08-14T05:08:23;18.80;;;15.05;;
11962;SDS011;62678;52.130;5.584;2022-08-14T05:10:50;18.73;;;14.27;;
11962;SDS011;62678;52.130;5.584;2022-08-14T05:13:19;16.52;;;14.85;;
11962;SDS011;62678;52.130;5.584;2022-08-14T05:15:47;19.15;;;14.20;;
11962;SDS011;62678;52.130;5.584;2022-08-14T05:18:15;20.30;;;14.25;;
11962;SDS011;62678;52.130;5.584;2022-08-14T05:20:44;20.23;;;14.50;;
11962;SDS011;62678;52.130;5.584;2022-08-14T05:23:14;18.40;;;15.32;;
11962;SDS011;62678;52.130;5.584;2022-08-14T05:25:43;19.85;;;14.90;;
11962;SDS011;62678;52.130;5.584;2022-08-14T05:28:12;22.58;;;15.00;;
11962;SDS011;62678;52.130;5.584;2022-08-14T05:30:42;23.02;;;15.63;;
11962;SDS011;62678;52.130;5.584;2022-08-14T05:33:10;24.70;;;15.63;;
11962;SDS011;62678;52.130;5.584;2022-08-14T05:35:38;24.50;;;14.82;;
11962;SDS011;62678;52.130;5.584;2022-08-14T05:38:06;19.90;;;14.07;;
11962;SDS011;62678;52.130;5.584;2022-08-14T05:40:34;26.85;;;14.85;;
11962;SDS011;62678;52.130;5.584;2022-08-14T05:43:01;17.73;;;14.77;;
11962;SDS011;62678;52.130;5.584;2022-08-14T05:45:28;23.00;;;15.27;;
11962;SDS011;62678;52.130;5.584;2022-08-14T05:47:54;18.23;;;15.57;;
11962;SDS011;62678;52.130;5.584;2022-08-14T05:50:21;24.75;;;15.23;;
11962;SDS011;62678;52.130;5.584;2022-08-14T05:52:48;20.02;;;16.08;;
11962;SDS011;62678;52.130;5.584;2022-08-14T05:55:15;23.23;;;14.85;;
11962;SDS011;62678;52.130;5.584;2022-08-14T05:57:51;19.85;;;14.57;;
11962;SDS011;62678;52.130;5.584;2022-08-14T06:00:19;17.08;;;15.10;;
11962;SDS011;62678;52.130;5.584;2022-08-14T06:02:47;16.50;;;13.93;;
11962;SDS011;62678;52.130;5.584;2022-08-14T06:05:14;15.98;;;14.40;;
11962;SDS011;62678;52.130;5.584;2022-08-14T06:07:41;17.73;;;14.40;;
11962;SDS011;62678;52.130;5.584;2022-08-14T06:10:08;18.00;;;14.43;;
11962;SDS011;62678;52.130;5.584;2022-08-14T06:12:36;14.88;;;13.00;;
11962;SDS011;62678;52.130;5.584;2022-08-14T06:15:05;14.93;;;13.27;;
11962;SDS011;62678;52.130;5.584;2022-08-14T06:17:41;18.08;;;14.13;;
11962;SDS011;62678;52.130;5.584;2022-08-14T06:20:09;17.23;;;14.13;;
11962;SDS011;62678;52.130;5.584;2022-08-14T06:22:37;15.43;;;13.82;;
11962;SDS011;62678;52.130;5.584;2022-08-14T06:25:04;15.25;;;13.43;;
11962;SDS011;62678;52.130;5.584;2022-08-14T06:27:34;16.35;;;13.93;;
11962;SDS011;62678;52.130;5.584;2022-08-14T06:30:02;16.02;;;14.13;;
11962;SDS011;62678;52.130;5.584;2022-08-14T06:32:31;18.77;;;14.05;;
11962;SDS011;62678;52.130;5.584;2022-08-14T06:34:57;16.23;;;13.30;;
11962;SDS011;62678;52.130;5.584;2022-08-14T06:37:24;16.73;;;13.63;;
11962;SDS011;62678;52.130;5.584;2022-08-14T06:39:51;14.45;;;12.95;;
11962;SDS011;62678;52.130;5.584;2022-08-14T06:42:18;15.75;;;14.07;;
11962;SDS011;62678;52.130;5.584;2022-08-14T06:44:45;15.27;;;12.85;;
11962;SDS011;62678;52.130;5.584;2022-08-14T06:47:12;13.05;;;11.57;;
11962;SDS011;62678;52.130;5.584;2022-08-14T06:49:40;14.63;;;13.13;;
11962;SDS011;62678;52.130;5.584;2022-08-14T06:52:06;14.05;;;12.57;;
11962;SDS011;62678;52.130;5.584;2022-08-14T06:54:33;16.13;;;13.27;;
11962;SDS011;62678;52.130;5.584;2022-08-14T06:57:00;15.00;;;12.93;;
11962;SDS011;62678;52.130;5.584;2022-08-14T06:59:26;14.35;;;12.90;;
11962;SDS011;62678;52.130;5.584;2022-08-14T07:01:53;14.32;;;11.55;;
11962;SDS011;62678;52.130;5.584;2022-08-14T07:04:37;15.07;;;11.75;;
11962;SDS011;62678;52.130;5.584;2022-08-14T07:07:23;13.48;;;11.00;;
11962;SDS011;62678;52.130;5.584;2022-08-14T07:09:50;12.75;;;10.77;;
11962;SDS011;62678;52.130;5.584;2022-08-14T07:12:16;14.15;;;11.30;;
11962;SDS011;62678;52.130;5.584;2022-08-14T07:14:43;12.98;;;11.60;;
11962;SDS011;62678;52.130;5.584;2022-08-14T07:17:10;12.77;;;11.00;;
11962;SDS011;62678;52.130;5.584;2022-08-14T07:19:37;12.02;;;10.82;;
11962;SDS011;62678;52.130;5.584;2022-08-14T07:22:05;11.52;;;10.43;;
11962;SDS011;62678;52.130;5.584;2022-08-14T07:24:34;12.27;;;11.02;;
11962;SDS011;62678;52.130;5.584;2022-08-14T07:27:00;12.05;;;10.65;;
11962;SDS011;62678;52.130;5.584;2022-08-14T07:29:27;11.40;;;10.00;;
11962;SDS011;62678;52.130;5.584;2022-08-14T07:31:54;10.63;;;9.52;;
11962;SDS011;62678;52.130;5.584;2022-08-14T07:34:21;12.77;;;9.73;;
11962;SDS011;62678;52.130;5.584;2022-08-14T07:36:50;10.75;;;9.50;;
11962;SDS011;62678;52.130;5.584;2022-08-14T07:39:18;10.07;;;9.18;;
11962;SDS011;62678;52.130;5.584;2022-08-14T07:41:45;9.60;;;8.70;;
11962;SDS011;62678;52.130;5.584;2022-08-14T07:44:12;9.65;;;8.65;;
11962;SDS011;62678;52.130;5.584;2022-08-14T07:46:39;9.85;;;8.27;;
11962;SDS011;62678;52.130;5.584;2022-08-14T07:49:05;9.05;;;8.15;;
11962;SDS011;62678;52.130;5.584;2022-08-14T07:51:33;8.13;;;7.35;;
11962;SDS011;62678;52.130;5.584;2022-08-14T07:54:00;8.95;;;7.88;;
11962;SDS011;62678;52.130;5.584;2022-08-14T07:56:29;11.32;;;8.13;;
11962;SDS011;62678;52.130;5.584;2022-08-14T07:58:56;9.23;;;8.02;;
11962;SDS011;62678;52.130;5.584;2022-08-14T08:01:23;8.30;;;7.50;;
11962;SDS011;62678;52.130;5.584;2022-08-14T08:03:53;9.27;;;8.00;;
11962;SDS011;62678;52.130;5.584;2022-08-14T08:06:23;8.75;;;8.05;;
11962;SDS011;62678;52.130;5.584;2022-08-14T08:08:50;8.40;;;7.65;;
11962;SDS011;62678;52.130;5.584;2022-08-14T08:11:20;8.82;;;7.60;;
11962;SDS011;62678;52.130;5.584;2022-08-14T08:13:48;8.55;;;7.40;;
11962;SDS011;62678;52.130;5.584;2022-08-14T08:16:15;10.63;;;8.13;;
11962;SDS011;62678;52.130;5.584;2022-08-14T08:18:45;10.15;;;8.10;;
11962;SDS011;62678;52.130;5.584;2022-08-14T08:21:12;9.25;;;7.78;;
11962;SDS011;62678;52.130;5.584;2022-08-14T08:23:39;9.48;;;8.55;;
11962;SDS011;62678;52.130;5.584;2022-08-14T08:26:06;9.00;;;8.10;;
11962;SDS011;62678;52.130;5.584;2022-08-14T08:28:33;11.48;;;8.45;;
11962;SDS011;62678;52.130;5.584;2022-08-14T08:31:02;9.43;;;8.43;;
11962;SDS011;62678;52.130;5.584;2022-08-14T08:33:31;11.43;;;8.27;;
11962;SDS011;62678;52.130;5.584;2022-08-14T08:36:00;9.48;;;8.48;;
11962;SDS011;62678;52.130;5.584;2022-08-14T08:38:30;8.82;;;7.88;;
11962;SDS011;62678;52.130;5.584;2022-08-14T08:40:58;9.68;;;8.25;;
11962;SDS011;62678;52.130;5.584;2022-08-14T08:43:27;11.65;;;7.75;;
11962;SDS011;62678;52.130;5.584;2022-08-14T08:45:58;8.48;;;7.65;;
11962;SDS011;62678;52.130;5.584;2022-08-14T08:48:28;8.68;;;7.80;;
11962;SDS011;62678;52.130;5.584;2022-08-14T08:51:07;9.07;;;8.13;;
11962;SDS011;62678;52.130;5.584;2022-08-14T08:53:35;8.35;;;7.55;;
11962;SDS011;62678;52.130;5.584;2022-08-14T08:56:02;9.30;;;8.10;;
11962;SDS011;62678;52.130;5.584;2022-08-14T08:58:29;8.52;;;7.72;;
11962;SDS011;62678;52.130;5.584;2022-08-14T09:00:57;9.73;;;7.28;;
11962;SDS011;62678;52.130;5.584;2022-08-14T09:03:26;8.15;;;7.35;;
11962;SDS011;62678;52.130;5.584;2022-08-14T09:05:57;7.95;;;6.82;;
11962;SDS011;62678;52.130;5.584;2022-08-14T09:08:27;9.75;;;7.13;;
11962;SDS011;62678;52.130;5.584;2022-08-14T09:10:54;7.95;;;7.15;;
11962;SDS011;62678;52.130;5.584;2022-08-14T09:13:24;8.00;;;7.20;;
11962;SDS011;62678;52.130;5.584;2022-08-14T09:15:51;8.15;;;7.20;;
11962;SDS011;62678;52.130;5.584;2022-08-14T09:18:20;7.88;;;6.85;;
11962;SDS011;62678;52.130;5.584;2022-08-14T09:20:53;8.98;;;7.18;;
11962;SDS011;62678;52.130;5.584;2022-08-14T09:23:21;7.53;;;6.80;;
11962;SDS011;62678;52.130;5.584;2022-08-14T09:25:49;7.60;;;6.90;;
11962;SDS011;62678;52.130;5.584;2022-08-14T09:28:17;6.85;;;6.15;;
11962;SDS011;62678;52.130;5.584;2022-08-14T09:30:46;6.55;;;5.90;;
11962;SDS011;62678;52.130;5.584;2022-08-14T09:36:31;7.70;;;6.68;;
11962;SDS011;62678;52.130;5.584;2022-08-14T09:39:06;8.40;;;6.30;;
11962;SDS011;62678;52.130;5.584;2022-08-14T09:41:43;8.27;;;6.38;;
11962;SDS011;62678;52.130;5.584;2022-08-14T09:44:19;7.10;;;6.18;;
11962;SDS011;62678;52.130;5.584;2022-08-14T09:46:58;8.80;;;6.80;;
11962;SDS011;62678;52.130;5.584;2022-08-14T09:49:31;8.18;;;6.30;;
11962;SDS011;62678;52.130;5.584;2022-08-14T09:52:05;7.68;;;6.40;;
11962;SDS011;62678;52.130;5.584;2022-08-14T09:54:35;9.48;;;6.18;;
11962;SDS011;62678;52.130;5.584;2022-08-14T09:57:04;6.80;;;6.10;;
11962;SDS011;62678;52.130;5.584;2022-08-14T09:59:40;7.00;;;5.88;;
11962;SDS011;62678;52.130;5.584;2022-08-14T10:02:17;6.43;;;5.78;;
11962;SDS011;62678;52.130;5.584;2022-08-14T10:04:46;10.10;;;6.28;;
11962;SDS011;62678;52.130;5.584;2022-08-14T10:07:29;7.25;;;5.32;;
11962;SDS011;62678;52.130;5.584;2022-08-14T10:09:58;6.35;;;5.75;;
11962;SDS011;62678;52.130;5.584;2022-08-14T10:12:26;7.22;;;6.38;;
11962;SDS011;62678;52.130;5.584;2022-08-14T10:15:13;9.68;;;6.20;;
11962;SDS011;62678;52.130;5.584;2022-08-14T10:17:43;6.70;;;5.30;;
11962;SDS011;62678;52.130;5.584;2022-08-14T10:20:10;7.35;;;5.53;;
11962;SDS011;62678;52.130;5.584;2022-08-14T10:22:40;5.60;;;5.10;;
11962;SDS011;62678;52.130;5.584;2022-08-14T10:25:11;5.05;;;4.65;;
11962;SDS011;62678;52.130;5.584;2022-08-14T10:27:39;9.95;;;5.75;;
11962;SDS011;62678;52.130;5.584;2022-08-14T10:30:11;7.88;;;6.43;;
11962;SDS011;62678;52.130;5.584;2022-08-14T10:32:42;6.32;;;5.38;;
11962;SDS011;62678;52.130;5.584;2022-08-14T10:35:10;6.10;;;5.55;;
11962;SDS011;62678;52.130;5.584;2022-08-14T10:37:38;5.55;;;5.00;;
11962;SDS011;62678;52.130;5.584;2022-08-14T10:40:08;6.43;;;5.25;;
11962;SDS011;62678;52.130;5.584;2022-08-14T10:42:36;6.13;;;5.57;;
11962;SDS011;62678;52.130;5.584;2022-08-14T10:45:15;6.72;;;5.28;;
11962;SDS011;62678;52.130;5.584;2022-08-14T10:47:44;5.60;;;5.10;;
11962;SDS011;62678;52.130;5.584;2022-08-14T10:50:11;6.18;;;5.40;;
11962;SDS011;62678;52.130;5.584;2022-08-14T10:52:38;7.20;;;5.18;;
11962;SDS011;62678;52.130;5.584;2022-08-14T10:55:09;5.97;;;5.38;;
11962;SDS011;62678;52.130;5.584;2022-08-14T10:57:48;6.03;;;5.45;;
11962;SDS011;62678;52.130;5.584;2022-08-14T11:00:17;7.05;;;4.82;;
11962;SDS011;62678;52.130;5.584;2022-08-14T11:02:54;6.13;;;5.53;;
11962;SDS011;62678;52.130;5.584;2022-08-14T11:05:23;7.15;;;4.88;;
11962;SDS011;62678;52.130;5.584;2022-08-14T11:07:55;7.22;;;4.88;;
11962;SDS011;62678;52.130;5.584;2022-08-14T11:10:38;6.13;;;4.93;;
11962;SDS011;62678;52.130;5.584;2022-08-14T11:13:14;6.93;;;4.70;;
11962;SDS011;62678;52.130;5.584;2022-08-14T11:15:44;5.28;;;4.57;;
11962;SDS011;62678;52.130;5.584;2022-08-14T11:18:13;6.35;;;4.93;;
11962;SDS011;62678;52.130;5.584;2022-08-14T11:20:41;5.07;;;4.65;;
11962;SDS011;62678;52.130;5.584;2022-08-14T11:23:13;6.75;;;4.60;;
11962;SDS011;62678;52.130;5.584;2022-08-14T11:25:44;4.57;;;4.28;;
11962;SDS011;62678;52.130;5.584;2022-08-14T11:28:12;5.32;;;4.55;;
11962;SDS011;62678;52.130;5.584;2022-08-14T11:30:39;5.88;;;4.80;;
11962;SDS011;62678;52.130;5.584;2022-08-14T11:33:08;5.85;;;5.28;;
11962;SDS011;62678;52.130;5.584;2022-08-14T11:35:35;5.38;;;4.80;;
11962;SDS011;62678;52.130;5.584;2022-08-14T11:38:04;6.72;;;4.90;;
11962;SDS011;62678;52.130;5.584;2022-08-14T11:40:32;6.20;;;4.50;;
11962;SDS011;62678;52.130;5.584;2022-08-14T11:43:03;8.00;;;4.80;;
11962;SDS011;62678;52.130;5.584;2022-08-14T11:45:32;5.25;;;4.50;;
11962;SDS011;62678;52.130;5.584;2022-08-14T11:48:00;7.53;;;4.28;;
11962;SDS011;62678;52.130;5.584;2022-08-14T11:50:39;5.85;;;4.68;;
11962;SDS011;62678;52.130;5.584;2022-08-14T11:53:16;4.65;;;4.25;;
11962;SDS011;62678;52.130;5.584;2022-08-14T11:55:45;4.70;;;4.30;;
11962;SDS011;62678;52.130;5.584;2022-08-14T11:58:15;4.95;;;4.55;;
11962;SDS011;62678;52.130;5.584;2022-08-14T12:00:45;7.25;;;4.20;;
11962;SDS011;62678;52.130;5.584;2022-08-14T12:03:13;4.93;;;4.43;;
11962;SDS011;62678;52.130;5.584;2022-08-14T12:05:40;5.43;;;4.38;;
11962;SDS011;62678;52.130;5.584;2022-08-14T12:08:07;5.32;;;4.78;;
11962;SDS011;62678;52.130;5.584;2022-08-14T12:10:36;4.25;;;3.95;;
11962;SDS011;62678;52.130;5.584;2022-08-14T12:13:11;8.82;;;4.38;;
11962;SDS011;62678;52.130;5.584;2022-08-14T12:15:41;5.40;;;4.10;;
11962;SDS011;62678;52.130;5.584;2022-08-14T12:18:09;4.68;;;4.28;;
11962;SDS011;62678;52.130;5.584;2022-08-14T12:20:36;4.47;;;4.07;;
11962;SDS011;62678;52.130;5.584;2022-08-14T12:23:06;4.85;;;4.40;;
11962;SDS011;62678;52.130;5.584;2022-08-14T12:25:46;8.27;;;5.22;;
11962;SDS011;62678;52.130;5.584;2022-08-14T12:28:13;5.85;;;4.88;;
11962;SDS011;62678;52.130;5.584;2022-08-14T12:30:42;7.05;;;5.07;;
11962;SDS011;62678;52.130;5.584;2022-08-14T12:33:19;4.95;;;4.35;;
11962;SDS011;62678;52.130;5.584;2022-08-14T12:35:50;4.78;;;4.25;;
11962;SDS011;62678;52.130;5.584;2022-08-14T12:38:17;5.25;;;4.50;;
11962;SDS011;62678;52.130;5.584;2022-08-14T12:40:45;5.90;;;4.35;;
11962;SDS011;62678;52.130;5.584;2022-08-14T12:43:13;5.85;;;4.50;;
11962;SDS011;62678;52.130;5.584;2022-08-14T12:45:46;5.10;;;4.55;;
11962;SDS011;62678;52.130;5.584;2022-08-14T12:48:15;4.93;;;4.32;;
11962;SDS011;62678;52.130;5.584;2022-08-14T12:50:43;6.82;;;4.82;;
11962;SDS011;62678;52.130;5.584;2022-08-14T12:53:10;7.78;;;4.60;;
11962;SDS011;62678;52.130;5.584;2022-08-14T12:55:38;5.22;;;4.78;;
11962;SDS011;62678;52.130;5.584;2022-08-14T12:58:08;5.38;;;4.95;;
11962;SDS011;62678;52.130;5.584;2022-08-14T13:00:35;5.38;;;4.88;;
11962;SDS011;62678;52.130;5.584;2022-08-14T13:03:22;4.95;;;4.55;;
11962;SDS011;62678;52.130;5.584;2022-08-14T13:05:51;5.25;;;4.70;;
11962;SDS011;62678;52.130;5.584;2022-08-14T13:08:18;5.13;;;4.57;;
11962;SDS011;62678;52.130;5.584;2022-08-14T13:10:47;4.90;;;4.45;;
11962;SDS011;62678;52.130;5.584;2022-08-14T13:13:14;6.82;;;4.68;;
11962;SDS011;62678;52.130;5.584;2022-08-14T13:15:42;5.53;;;4.75;;
11962;SDS011;62678;52.130;5.584;2022-08-14T13:18:10;6.38;;;5.05;;
11962;SDS011;62678;52.130;5.584;2022-08-14T13:20:40;7.43;;;5.13;;
11962;SDS011;62678;52.130;5.584;2022-08-14T13:23:10;6.60;;;4.78;;
11962;SDS011;62678;52.130;5.584;2022-08-14T13:25:38;5.30;;;4.80;;
11962;SDS011;62678;52.130;5.584;2022-08-14T13:28:08;5.10;;;4.60;;
11962;SDS011;62678;52.130;5.584;2022-08-14T13:30:36;5.50;;;4.45;;
11962;SDS011;62678;52.130;5.584;2022-08-14T13:33:05;4.90;;;4.40;;
11962;SDS011;62678;52.130;5.584;2022-08-14T13:35:33;5.35;;;4.85;;
11962;SDS011;62678;52.130;5.584;2022-08-14T13:38:01;4.95;;;4.55;;
11962;SDS011;62678;52.130;5.584;2022-08-14T13:40:28;5.72;;;4.35;;
11962;SDS011;62678;52.130;5.584;2022-08-14T13:42:55;6.07;;;4.53;;
11962;SDS011;62678;52.130;5.584;2022-08-14T13:45:22;4.85;;;4.45;;
11962;SDS011;62678;52.130;5.584;2022-08-14T13:47:50;4.78;;;4.45;;
11962;SDS011;62678;52.130;5.584;2022-08-14T13:50:19;7.30;;;5.05;;
11962;SDS011;62678;52.130;5.584;2022-08-14T13:52:46;6.10;;;4.95;;
11962;SDS011;62678;52.130;5.584;2022-08-14T13:55:17;4.93;;;4.53;;
11962;SDS011;62678;52.130;5.584;2022-08-14T13:57:44;5.70;;;4.90;;
11962;SDS011;62678;52.130;5.584;2022-08-14T14:00:12;5.55;;;4.97;;
11962;SDS011;62678;52.130;5.584;2022-08-14T14:02:40;5.95;;;5.00;;
11962;SDS011;62678;52.130;5.584;2022-08-14T14:05:08;5.05;;;4.65;;
11962;SDS011;62678;52.130;5.584;2022-08-14T14:07:39;5.60;;;5.10;;
11962;SDS011;62678;52.130;5.584;2022-08-14T14:10:11;5.40;;;4.90;;
11962;SDS011;62678;52.130;5.584;2022-08-14T14:12:40;5.68;;;5.07;;
11962;SDS011;62678;52.130;5.584;2022-08-14T14:15:09;5.45;;;4.88;;
11962;SDS011;62678;52.130;5.584;2022-08-14T14:17:37;5.45;;;4.95;;
11962;SDS011;62678;52.130;5.584;2022-08-14T14:20:06;5.70;;;5.13;;
11962;SDS011;62678;52.130;5.584;2022-08-14T14:22:37;6.22;;;5.32;;
11962;SDS011;62678;52.130;5.584;2022-08-14T14:25:07;6.60;;;4.88;;
11962;SDS011;62678;52.130;5.584;2022-08-14T14:27:35;6.25;;;4.90;;
11962;SDS011;62678;52.130;5.584;2022-08-14T14:30:06;5.72;;;5.22;;
11962;SDS011;62678;52.130;5.584;2022-08-14T14:32:35;6.38;;;5.15;;
11962;SDS011;62678;52.130;5.584;2022-08-14T14:35:05;5.63;;;5.13;;
11962;SDS011;62678;52.130;5.584;2022-08-14T14:37:37;5.70;;;5.20;;
11962;SDS011;62678;52.130;5.584;2022-08-14T14:40:04;5.82;;;5.18;;
11962;SDS011;62678;52.130;5.584;2022-08-14T14:42:31;7.10;;;4.88;;
11962;SDS011;62678;52.130;5.584;2022-08-14T14:45:01;5.43;;;4.93;;
11962;SDS011;62678;52.130;5.584;2022-08-14T14:47:31;4.97;;;4.57;;
11962;SDS011;62678;52.130;5.584;2022-08-14T14:49:59;5.43;;;4.57;;
11962;SDS011;62678;52.130;5.584;2022-08-14T14:52:27;7.38;;;5.00;;